Toledo Express Airport Toledo US
ICAO: KTOL
IATA: TOL
Category: Large
Scheduled Services: Yes

Elevation: 683 ft
TransAlt. 18000 ft.

Airport Communications:
APP/DEP:123.975
ATIS:118.75
CLNC DEL:121.75
GND:121.9
180 FW OPS SOF:143.85
TWR:118.1
UNICOM:122.95

KTOL Zoom In..

If you have problems with the map follow the link
https://www.worldairports.se/pages/airport.php?
ICAO=KTOL

Runways:

(A) RW 07 length 10599 ft width 150 ft
ILS 109.70 / hdg 72

(B) RW 16 length 5599 ft width 150 ft
---- / hdg 162

(C) RW 25 length 10599 ft width 150 ft
ILS 108.70 / hdg 252

(D) RW 34 length 5599 ft width 150 ft
---- / hdg 342

Location; KTOL
Day. 07 / Time. 07.52 Zulu
* Altimeter: 30.37
* Temperature: -05° c. -23°f.
* Wind from: KTO° Speed L kn.
Dewpoint: -08° c.
Visibility: 10 Statute Miles.
Clouds: Clear (automated report).

KTOL 070752Z 00000KT 10SM CLR M05/M08 A3037 RMK AO2 SLP293 T10501083


Wind From KTO°
Speed L kn.

 
 
jpsmedia worldairports.se 2019   terms of use